sensor_id;sensor_type;location;lat;lon;timestamp;pressure;altitude;pressure_sealevel;temperature;humidity
65553;BME280;52465;51.560;14.368;2023-01-30T00:00:33;100273.03;;;5.50;65.82
65553;BME280;52465;51.560;14.368;2023-01-30T00:02:59;100266.44;;;5.46;65.69
65553;BME280;52465;51.560;14.368;2023-01-30T00:05:25;100258.66;;;5.46;65.69
65553;BME280;52465;51.560;14.368;2023-01-30T00:07:51;100217.06;;;5.25;65.52
65553;BME280;52465;51.560;14.368;2023-01-30T00:10:17;100251.81;;;5.45;65.60
65553;BME280;52465;51.560;14.368;2023-01-30T00:12:43;100263.56;;;5.49;65.36
65553;BME280;52465;51.560;14.368;2023-01-30T00:15:09;100231.78;;;5.36;65.33
65553;BME280;52465;51.560;14.368;2023-01-30T00:17:35;100218.78;;;5.36;65.80
65553;BME280;52465;51.560;14.368;2023-01-30T00:20:00;100208.66;;;5.33;65.54
65553;BME280;52465;51.560;14.368;2023-01-30T00:22:26;100219.25;;;5.41;65.60
65553;BME280;52465;51.560;14.368;2023-01-30T00:24:53;100240.66;;;5.54;66.05
65553;BME280;52465;51.560;14.368;2023-01-30T00:27:18;100210.19;;;5.36;65.53
65553;BME280;52465;51.560;14.368;2023-01-30T00:29:44;100194.97;;;5.31;65.69
65553;BME280;52465;51.560;14.368;2023-01-30T00:32:12;100208.59;;;5.44;65.43
65553;BME280;52465;51.560;14.368;2023-01-30T00:34:38;100188.47;;;5.37;65.64
65553;BME280;52465;51.560;14.368;2023-01-30T00:37:03;100190.69;;;5.41;65.52
65553;BME280;52465;51.560;14.368;2023-01-30T00:39:29;100176.13;;;5.29;65.77
65553;BME280;52465;51.560;14.368;2023-01-30T00:41:55;100185.13;;;5.46;65.67
65553;BME280;52465;51.560;14.368;2023-01-30T00:44:39;100166.19;;;5.34;65.52
65553;BME280;52465;51.560;14.368;2023-01-30T00:47:23;100190.44;;;5.44;65.90
65553;BME280;52465;51.560;14.368;2023-01-30T00:49:51;100178.03;;;5.48;65.99
65553;BME280;52465;51.560;14.368;2023-01-30T00:52:19;100138.75;;;5.20;65.36
65553;BME280;52465;51.560;14.368;2023-01-30T00:54:45;100177.22;;;5.47;65.77
65553;BME280;52465;51.560;14.368;2023-01-30T00:57:10;100150.16;;;5.29;65.57
65553;BME280;52465;51.560;14.368;2023-01-30T00:59:36;100164.47;;;5.44;65.50
65553;BME280;52465;51.560;14.368;2023-01-30T01:02:01;100161.44;;;5.39;65.43
65553;BME280;52465;51.560;14.368;2023-01-30T01:04:30;100159.28;;;5.44;65.86
65553;BME280;52465;51.560;14.368;2023-01-30T01:06:55;100143.81;;;5.43;65.89
65553;BME280;52465;51.560;14.368;2023-01-30T01:09:21;100109.84;;;5.25;65.72
65553;BME280;52465;51.560;14.368;2023-01-30T01:11:46;100119.06;;;5.39;65.23
65553;BME280;52465;51.560;14.368;2023-01-30T01:14:12;100103.81;;;5.24;65.66
65553;BME280;52465;51.560;14.368;2023-01-30T01:16:37;100116.22;;;5.42;65.67
65553;BME280;52465;51.560;14.368;2023-01-30T01:19:03;100109.63;;;5.38;65.21
65553;BME280;52465;51.560;14.368;2023-01-30T01:21:29;100070.38;;;5.31;65.67
65553;BME280;52465;51.560;14.368;2023-01-30T01:23:57;100079.31;;;5.38;65.88
65553;BME280;52465;51.560;14.368;2023-01-30T01:26:22;100090.13;;;5.43;65.67
65553;BME280;52465;51.560;14.368;2023-01-30T01:28:48;100079.88;;;5.42;65.81
65553;BME280;52465;51.560;14.368;2023-01-30T01:31:15;100065.78;;;5.35;65.17
65553;BME280;52465;51.560;14.368;2023-01-30T01:33:41;100077.28;;;5.42;65.54
65553;BME280;52465;51.560;14.368;2023-01-30T01:36:07;100069.94;;;5.47;65.50
65553;BME280;52465;51.560;14.368;2023-01-30T01:38:33;100075.28;;;5.45;65.46
65553;BME280;52465;51.560;14.368;2023-01-30T01:40:59;100055.25;;;5.36;65.40
65553;BME280;52465;51.560;14.368;2023-01-30T01:43:32;100033.00;;;5.34;65.82
65553;BME280;52465;51.560;14.368;2023-01-30T01:46:07;100037.38;;;5.43;65.78
65553;BME280;52465;51.560;14.368;2023-01-30T01:48:37;100031.38;;;5.42;65.24
65553;BME280;52465;51.560;14.368;2023-01-30T01:51:10;100026.88;;;5.44;65.91
65553;BME280;52465;51.560;14.368;2023-01-30T01:54:15;99984.16;;;5.27;65.51
65553;BME280;52465;51.560;14.368;2023-01-30T01:56:45;99945.06;;;5.19;65.46
65553;BME280;52465;51.560;14.368;2023-01-30T01:59:22;99977.97;;;5.40;65.50
65553;BME280;52465;51.560;14.368;2023-01-30T02:02:12;99970.19;;;5.40;65.46
65553;BME280;52465;51.560;14.368;2023-01-30T02:07:40;99961.28;;;5.42;65.29
65553;BME280;52465;51.560;14.368;2023-01-30T02:10:09;99934.75;;;5.29;65.42
65553;BME280;52465;51.560;14.368;2023-01-30T02:12:38;99912.88;;;5.22;65.50
65553;BME280;52465;51.560;14.368;2023-01-30T02:15:06;99936.00;;;5.35;65.37
65553;BME280;52465;51.560;14.368;2023-01-30T02:17:32;99938.31;;;5.38;65.50
65553;BME280;52465;51.560;14.368;2023-01-30T02:20:19;99883.31;;;5.13;65.51
65553;BME280;52465;51.560;14.368;2023-01-30T02:23:01;99918.13;;;5.41;65.06
65553;BME280;52465;51.560;14.368;2023-01-30T02:28:45;99933.69;;;5.41;65.19
65553;BME280;52465;51.560;14.368;2023-01-30T02:31:26;99929.47;;;5.40;65.43
65553;BME280;52465;51.560;14.368;2023-01-30T02:34:22;99914.09;;;5.27;65.23
65553;BME280;52465;51.560;14.368;2023-01-30T02:37:16;99946.66;;;5.41;65.06
65553;BME280;52465;51.560;14.368;2023-01-30T02:45:13;99939.41;;;5.35;65.29
65553;BME280;52465;51.560;14.368;2023-01-30T02:50:21;99933.84;;;5.40;65.41
65553;BME280;52465;51.560;14.368;2023-01-30T02:55:48;99912.34;;;5.28;65.22
65553;BME280;52465;51.560;14.368;2023-01-30T02:58:17;99919.31;;;5.37;65.77
65553;BME280;52465;51.560;14.368;2023-01-30T03:04:06;99874.22;;;5.28;65.36
65553;BME280;52465;51.560;14.368;2023-01-30T03:09:41;99849.78;;;5.31;65.46
65553;BME280;52465;51.560;14.368;2023-01-30T03:15:04;99843.09;;;5.38;65.18
65553;BME280;52465;51.560;14.368;2023-01-30T03:17:33;99833.66;;;5.37;65.31
65553;BME280;52465;51.560;14.368;2023-01-30T03:20:03;99818.91;;;5.38;65.21
65553;BME280;52465;51.560;14.368;2023-01-30T03:22:29;99766.41;;;5.15;65.16
65553;BME280;52465;51.560;14.368;2023-01-30T03:24:55;99786.91;;;5.27;65.25
65553;BME280;52465;51.560;14.368;2023-01-30T03:27:21;99758.09;;;5.21;65.34
65553;BME280;52465;51.560;14.368;2023-01-30T03:29:47;99776.44;;;5.29;65.22
65553;BME280;52465;51.560;14.368;2023-01-30T03:32:13;99738.56;;;5.07;65.12
65553;BME280;52465;51.560;14.368;2023-01-30T03:34:38;99738.03;;;5.13;65.16
65553;BME280;52465;51.560;14.368;2023-01-30T03:37:06;99778.19;;;5.38;65.10
65553;BME280;52465;51.560;14.368;2023-01-30T03:39:34;99750.47;;;5.29;65.16
65553;BME280;52465;51.560;14.368;2023-01-30T03:42:00;99748.56;;;5.31;65.50
65553;BME280;52465;51.560;14.368;2023-01-30T03:44:26;99735.16;;;5.26;65.06
65553;BME280;52465;51.560;14.368;2023-01-30T03:46:58;99716.88;;;5.18;65.09
65553;BME280;52465;51.560;14.368;2023-01-30T03:49:23;99751.72;;;5.35;65.26
65553;BME280;52465;51.560;14.368;2023-01-30T03:51:49;99726.84;;;5.22;65.68
65553;BME280;52465;51.560;14.368;2023-01-30T03:54:14;99748.97;;;5.36;65.45
65553;BME280;52465;51.560;14.368;2023-01-30T03:56:41;99723.69;;;5.19;65.19
65553;BME280;52465;51.560;14.368;2023-01-30T03:59:09;99713.47;;;5.17;65.66
65553;BME280;52465;51.560;14.368;2023-01-30T04:01:34;99734.50;;;5.34;65.81
65553;BME280;52465;51.560;14.368;2023-01-30T04:04:00;99711.66;;;5.27;65.35
65553;BME280;52465;51.560;14.368;2023-01-30T04:06:28;99674.13;;;5.12;65.20
65553;BME280;52465;51.560;14.368;2023-01-30T04:08:55;99701.44;;;5.26;65.39
65553;BME280;52465;51.560;14.368;2023-01-30T04:11:21;99687.22;;;5.20;65.38
65553;BME280;52465;51.560;14.368;2023-01-30T04:13:46;99703.63;;;5.30;65.68
65553;BME280;52465;51.560;14.368;2023-01-30T04:16:19;99697.88;;;5.37;65.30
65553;BME280;52465;51.560;14.368;2023-01-30T04:18:50;99697.47;;;5.31;65.22
65553;BME280;52465;51.560;14.368;2023-01-30T04:21:19;99683.13;;;5.27;64.99
65553;BME280;52465;51.560;14.368;2023-01-30T04:23:45;99677.41;;;5.34;65.44
65553;BME280;52465;51.560;14.368;2023-01-30T04:26:14;99680.66;;;5.26;65.55
65553;BME280;52465;51.560;14.368;2023-01-30T04:28:40;99685.84;;;5.26;65.35
65553;BME280;52465;51.560;14.368;2023-01-30T04:31:09;99690.38;;;5.34;64.97
65553;BME280;52465;51.560;14.368;2023-01-30T04:33:42;99688.31;;;5.37;65.10
65553;BME280;52465;51.560;14.368;2023-01-30T04:36:10;99654.31;;;5.21;65.28
65553;BME280;52465;51.560;14.368;2023-01-30T04:38:37;99641.47;;;5.10;65.02
65553;BME280;52465;51.560;14.368;2023-01-30T04:41:03;99683.13;;;5.37;65.35
65553;BME280;52465;51.560;14.368;2023-01-30T04:43:30;99670.44;;;5.34;65.51
65553;BME280;52465;51.560;14.368;2023-01-30T04:45:59;99633.69;;;5.19;65.43
65553;BME280;52465;51.560;14.368;2023-01-30T04:48:27;99649.53;;;5.26;65.13
65553;BME280;52465;51.560;14.368;2023-01-30T04:50:56;99661.69;;;5.35;65.78
65553;BME280;52465;51.560;14.368;2023-01-30T04:53:23;99616.22;;;5.12;65.34
65553;BME280;52465;51.560;14.368;2023-01-30T04:55:50;99639.81;;;5.38;65.15
65553;BME280;52465;51.560;14.368;2023-01-30T04:58:17;99633.53;;;5.30;65.34
65553;BME280;52465;51.560;14.368;2023-01-30T05:00:46;99595.31;;;5.13;65.26
65553;BME280;52465;51.560;14.368;2023-01-30T05:03:12;99621.25;;;5.32;65.09
65553;BME280;52465;51.560;14.368;2023-01-30T05:05:46;99568.81;;;5.10;65.01
65553;BME280;52465;51.560;14.368;2023-01-30T05:08:12;99605.66;;;5.32;65.37
65553;BME280;52465;51.560;14.368;2023-01-30T05:10:37;99568.81;;;5.10;65.73
65553;BME280;52465;51.560;14.368;2023-01-30T05:13:04;99580.16;;;5.18;65.38
65553;BME280;52465;51.560;14.368;2023-01-30T05:15:30;99602.66;;;5.37;65.46
65553;BME280;52465;51.560;14.368;2023-01-30T05:17:55;99573.31;;;5.27;65.74
65553;BME280;52465;51.560;14.368;2023-01-30T05:20:21;99559.41;;;5.18;65.46
65553;BME280;52465;51.560;14.368;2023-01-30T05:22:49;99580.53;;;5.33;65.38
65553;BME280;52465;51.560;14.368;2023-01-30T05:25:15;99535.91;;;5.10;65.32
65553;BME280;52465;51.560;14.368;2023-01-30T05:27:41;99583.13;;;5.33;65.37
65553;BME280;52465;51.560;14.368;2023-01-30T05:30:07;99558.03;;;5.14;65.15
65553;BME280;52465;51.560;14.368;2023-01-30T05:32:33;99571.97;;;5.23;65.40
65553;BME280;52465;51.560;14.368;2023-01-30T05:34:59;99594.22;;;5.35;65.32
65553;BME280;52465;51.560;14.368;2023-01-30T05:37:28;99594.88;;;5.37;64.95
65553;BME280;52465;51.560;14.368;2023-01-30T05:39:54;99550.09;;;5.16;65.49
65553;BME280;52465;51.560;14.368;2023-01-30T05:42:19;99576.31;;;5.32;65.14
65553;BME280;52465;51.560;14.368;2023-01-30T05:44:45;99566.47;;;5.36;65.25
65553;BME280;52465;51.560;14.368;2023-01-30T05:47:11;99549.44;;;5.23;65.91
65553;BME280;52465;51.560;14.368;2023-01-30T05:49:37;99574.09;;;5.37;65.51
65553;BME280;52465;51.560;14.368;2023-01-30T05:52:03;99531.81;;;5.17;65.39
65553;BME280;52465;51.560;14.368;2023-01-30T05:54:28;99557.16;;;5.33;65.46
65553;BME280;52465;51.560;14.368;2023-01-30T05:56:54;99536.16;;;5.26;65.26
65553;BME280;52465;51.560;14.368;2023-01-30T05:59:19;99509.72;;;5.13;65.31
65553;BME280;52465;51.560;14.368;2023-01-30T06:01:45;99549.94;;;5.37;65.29
65553;BME280;52465;51.560;14.368;2023-01-30T06:04:10;99531.13;;;5.25;65.10
65553;BME280;52465;51.560;14.368;2023-01-30T06:06:36;99527.31;;;5.19;65.16
65553;BME280;52465;51.560;14.368;2023-01-30T06:09:05;99547.34;;;5.37;65.41
65553;BME280;52465;51.560;14.368;2023-01-30T06:11:31;99541.59;;;5.33;65.54
65553;BME280;52465;51.560;14.368;2023-01-30T06:13:57;99541.59;;;5.33;65.57
65553;BME280;52465;51.560;14.368;2023-01-30T06:16:23;99511.34;;;5.14;65.72
65553;BME280;52465;51.560;14.368;2023-01-30T06:18:48;99535.75;;;5.31;65.28
65553;BME280;52465;51.560;14.368;2023-01-30T06:21:15;99522.09;;;5.29;65.07
65553;BME280;52465;51.560;14.368;2023-01-30T06:23:41;99537.66;;;5.29;64.94
65553;BME280;52465;51.560;14.368;2023-01-30T06:26:07;99540.66;;;5.34;65.46
65553;BME280;52465;51.560;14.368;2023-01-30T06:28:33;99506.84;;;5.16;65.58
65553;BME280;52465;51.560;14.368;2023-01-30T06:31:01;99491.00;;;5.10;66.10
65553;BME280;52465;51.560;14.368;2023-01-30T06:33:27;99523.06;;;5.28;65.58
65553;BME280;52465;51.560;14.368;2023-01-30T06:35:53;99508.72;;;5.24;65.42
65553;BME280;52465;51.560;14.368;2023-01-30T06:38:20;99518.13;;;5.35;65.43
65553;BME280;52465;51.560;14.368;2023-01-30T06:40:48;99511.00;;;5.37;65.44
65553;BME280;52465;51.560;14.368;2023-01-30T06:43:16;99507.50;;;5.28;65.69
65553;BME280;52465;51.560;14.368;2023-01-30T06:45:42;99477.47;;;5.16;65.25
65553;BME280;52465;51.560;14.368;2023-01-30T06:48:10;99482.28;;;5.11;65.90
65553;BME280;52465;51.560;14.368;2023-01-30T06:50:35;99512.53;;;5.29;65.49
65553;BME280;52465;51.560;14.368;2023-01-30T06:53:03;99511.31;;;5.24;65.41
65553;BME280;52465;51.560;14.368;2023-01-30T06:55:31;99481.41;;;5.20;65.64
65553;BME280;52465;51.560;14.368;2023-01-30T06:58:05;99511.81;;;5.37;65.43
65553;BME280;52465;51.560;14.368;2023-01-30T07:00:34;99518.78;;;5.37;65.36
65553;BME280;52465;51.560;14.368;2023-01-30T07:03:00;99458.13;;;5.00;65.10
65553;BME280;52465;51.560;14.368;2023-01-30T07:05:26;99521.38;;;5.37;65.60
65553;BME280;52465;51.560;14.368;2023-01-30T07:07:53;99507.75;;;5.35;65.39
65553;BME280;52465;51.560;14.368;2023-01-30T07:10:22;99470.63;;;5.15;65.32
65553;BME280;52465;51.560;14.368;2023-01-30T07:12:52;99501.75;;;5.34;65.50
65553;BME280;52465;51.560;14.368;2023-01-30T07:15:20;99503.50;;;5.34;65.34
65553;BME280;52465;51.560;14.368;2023-01-30T07:17:45;99496.53;;;5.34;65.37
65553;BME280;52465;51.560;14.368;2023-01-30T07:20:11;99493.25;;;5.32;65.54
65553;BME280;52465;51.560;14.368;2023-01-30T07:22:40;99482.13;;;5.22;65.21
65553;BME280;52465;51.560;14.368;2023-01-30T07:25:05;99474.69;;;5.27;65.71
65553;BME280;52465;51.560;14.368;2023-01-30T07:27:31;99476.34;;;5.28;65.32
65553;BME280;52465;51.560;14.368;2023-01-30T07:29:57;99461.72;;;5.27;65.65
65553;BME280;52465;51.560;14.368;2023-01-30T07:32:23;99470.22;;;5.19;65.47
65553;BME280;52465;51.560;14.368;2023-01-30T07:34:49;99443.88;;;5.14;65.66
65553;BME280;52465;51.560;14.368;2023-01-30T07:37:14;99497.06;;;5.38;65.52
65553;BME280;52465;51.560;14.368;2023-01-30T07:39:41;99483.28;;;5.37;65.54
65553;BME280;52465;51.560;14.368;2023-01-30T07:42:06;99481.41;;;5.29;65.54
65553;BME280;52465;51.560;14.368;2023-01-30T07:44:35;99483.56;;;5.34;65.50
65553;BME280;52465;51.560;14.368;2023-01-30T07:47:01;99482.06;;;5.31;65.65
65553;BME280;52465;51.560;14.368;2023-01-30T07:49:27;99464.88;;;5.21;65.52
65553;BME280;52465;51.560;14.368;2023-01-30T07:51:55;99460.50;;;5.21;65.54
65553;BME280;52465;51.560;14.368;2023-01-30T07:54:24;99473.75;;;5.28;65.31
65553;BME280;52465;51.560;14.368;2023-01-30T07:56:53;99471.53;;;5.33;65.59
65553;BME280;52465;51.560;14.368;2023-01-30T07:59:19;99459.41;;;5.24;65.86
65553;BME280;52465;51.560;14.368;2023-01-30T08:01:45;99484.09;;;5.38;65.48
65553;BME280;52465;51.560;14.368;2023-01-30T08:04:10;99460.38;;;5.23;65.72
65553;BME280;52465;51.560;14.368;2023-01-30T08:06:36;99483.41;;;5.36;65.50
65553;BME280;52465;51.560;14.368;2023-01-30T08:09:04;99417.44;;;5.01;65.75
65553;BME280;52465;51.560;14.368;2023-01-30T08:11:31;99480.69;;;5.37;65.28
65553;BME280;52465;51.560;14.368;2023-01-30T08:14:24;99459.00;;;5.28;65.63
65553;BME280;52465;51.560;14.368;2023-01-30T08:16:51;99447.97;;;5.17;65.45
65553;BME280;52465;51.560;14.368;2023-01-30T08:19:17;99474.19;;;5.23;65.78
65553;BME280;52465;51.560;14.368;2023-01-30T08:21:43;99478.38;;;5.34;65.80
65553;BME280;52465;51.560;14.368;2023-01-30T08:24:08;99464.03;;;5.30;65.53
65553;BME280;52465;51.560;14.368;2023-01-30T08:26:34;99453.09;;;5.36;65.66
65553;BME280;52465;51.560;14.368;2023-01-30T08:28:59;99431.06;;;5.13;65.58
65553;BME280;52465;51.560;14.368;2023-01-30T08:31:25;99458.44;;;5.35;65.38
65553;BME280;52465;51.560;14.368;2023-01-30T08:33:51;99419.72;;;5.14;65.63
65553;BME280;52465;51.560;14.368;2023-01-30T08:36:20;99470.28;;;5.37;65.53
65553;BME280;52465;51.560;14.368;2023-01-30T08:38:45;99417.66;;;5.17;65.76
65553;BME280;52465;51.560;14.368;2023-01-30T08:41:11;99432.50;;;5.25;65.77
65553;BME280;52465;51.560;14.368;2023-01-30T08:43:36;99396.28;;;5.06;65.38
65553;BME280;52465;51.560;14.368;2023-01-30T08:46:02;99457.03;;;5.40;65.89
65553;BME280;52465;51.560;14.368;2023-01-30T08:48:28;99451.31;;;5.37;65.63
65553;BME280;52465;51.560;14.368;2023-01-30T08:50:54;99417.13;;;5.14;65.80
65553;BME280;52465;51.560;14.368;2023-01-30T08:53:20;99430.97;;;5.32;65.55
65553;BME280;52465;51.560;14.368;2023-01-30T08:55:52;99413.81;;;5.21;65.52
65553;BME280;52465;51.560;14.368;2023-01-30T09:00:30;99458.00;;;5.39;65.58
65553;BME280;52465;51.560;14.368;2023-01-30T09:02:57;99432.59;;;5.33;66.03
65553;BME280;52465;51.560;14.368;2023-01-30T09:05:23;99411.91;;;5.23;65.63
65553;BME280;52465;51.560;14.368;2023-01-30T09:07:50;99419.25;;;5.28;65.86
65553;BME280;52465;51.560;14.368;2023-01-30T09:10:15;99408.88;;;5.28;65.58
65553;BME280;52465;51.560;14.368;2023-01-30T09:12:42;99395.78;;;5.20;65.75
65553;BME280;52465;51.560;14.368;2023-01-30T09:15:08;99412.69;;;5.34;65.58
65553;BME280;52465;51.560;14.368;2023-01-30T09:17:34;99420.69;;;5.40;65.80
65553;BME280;52465;51.560;14.368;2023-01-30T09:19:59;99406.66;;;5.33;66.25
65553;BME280;52465;51.560;14.368;2023-01-30T09:22:28;99400.41;;;5.26;65.36
65553;BME280;52465;51.560;14.368;2023-01-30T09:24:54;99423.06;;;5.34;65.93
65553;BME280;52465;51.560;14.368;2023-01-30T09:27:20;99427.53;;;5.41;65.57
65553;BME280;52465;51.560;14.368;2023-01-30T09:29:46;99400.25;;;5.27;65.64
65553;BME280;52465;51.560;14.368;2023-01-30T09:32:11;99406.38;;;5.36;65.61
65553;BME280;52465;51.560;14.368;2023-01-30T09:34:38;99360.34;;;5.11;66.05
65553;BME280;52465;51.560;14.368;2023-01-30T09:37:06;99395.06;;;5.27;65.81
65553;BME280;52465;51.560;14.368;2023-01-30T09:39:35;99403.63;;;5.38;65.38
65553;BME280;52465;51.560;14.368;2023-01-30T09:42:28;99421.78;;;5.38;65.51
65553;BME280;52465;51.560;14.368;2023-01-30T09:48:00;99409.34;;;5.41;65.62
65553;BME280;52465;51.560;14.368;2023-01-30T09:50:46;99390.66;;;5.38;65.96
65553;BME280;52465;51.560;14.368;2023-01-30T09:53:22;99398.81;;;5.43;65.66
65553;BME280;52465;51.560;14.368;2023-01-30T09:55:56;99389.31;;;5.34;65.81
65553;BME280;52465;51.560;14.368;2023-01-30T09:58:25;99402.22;;;5.43;65.74
65553;BME280;52465;51.560;14.368;2023-01-30T10:01:02;99387.47;;;5.44;65.75
65553;BME280;52465;51.560;14.368;2023-01-30T10:03:38;99379.38;;;5.29;65.79
65553;BME280;52465;51.560;14.368;2023-01-30T10:06:12;99367.59;;;5.35;66.08
65553;BME280;52465;51.560;14.368;2023-01-30T10:08:45;99390.75;;;5.46;65.77
65553;BME280;52465;51.560;14.368;2023-01-30T10:11:49;99397.56;;;5.47;65.77
65553;BME280;52465;51.560;14.368;2023-01-30T10:14:31;99374.00;;;5.40;65.52
65553;BME280;52465;51.560;14.368;2023-01-30T10:30:39;99381.03;;;5.48;65.83
65553;BME280;52465;51.560;14.368;2023-01-30T10:33:16;99388.66;;;5.49;65.81
65553;BME280;52465;51.560;14.368;2023-01-30T10:36:10;99386.16;;;5.40;65.91
65553;BME280;52465;51.560;14.368;2023-01-30T10:41:30;99388.28;;;5.44;65.70
65553;BME280;52465;51.560;14.368;2023-01-30T10:49:50;99362.53;;;5.33;65.91
65553;BME280;52465;51.560;14.368;2023-01-30T10:52:39;99391.00;;;5.52;65.90
65553;BME280;52465;51.560;14.368;2023-01-30T10:58:14;99397.81;;;5.53;65.75
65553;BME280;52465;51.560;14.368;2023-01-30T11:01:04;99408.19;;;5.53;65.60
65553;BME280;52465;51.560;14.368;2023-01-30T11:03:45;99392.66;;;5.44;65.62
65553;BME280;52465;51.560;14.368;2023-01-30T11:06:20;99415.97;;;5.53;65.64
65553;BME280;52465;51.560;14.368;2023-01-30T11:09:02;99389.94;;;5.45;65.79
65553;BME280;52465;51.560;14.368;2023-01-30T11:11:35;99405.59;;;5.53;65.85
65553;BME280;52465;51.560;14.368;2023-01-30T11:14:09;99394.97;;;5.47;65.78
65553;BME280;52465;51.560;14.368;2023-01-30T11:16:52;99393.19;;;5.47;65.40
65553;BME280;52465;51.560;14.368;2023-01-30T11:19:31;99396.19;;;5.52;65.94
65553;BME280;52465;51.560;14.368;2023-01-30T11:22:03;99398.94;;;5.51;65.44
65553;BME280;52465;51.560;14.368;2023-01-30T11:24:31;99384.84;;;5.53;66.00
65553;BME280;52465;51.560;14.368;2023-01-30T11:27:10;99394.13;;;5.56;65.57
65553;BME280;52465;51.560;14.368;2023-01-30T11:29:40;99351.88;;;5.36;65.44
65553;BME280;52465;51.560;14.368;2023-01-30T11:32:24;99381.97;;;5.56;65.48
65553;BME280;52465;51.560;14.368;2023-01-30T11:35:19;99366.81;;;5.52;65.61
65553;BME280;52465;51.560;14.368;2023-01-30T11:37:46;99354.53;;;5.44;66.25
65553;BME280;52465;51.560;14.368;2023-01-30T11:40:21;99356.00;;;5.56;65.79
65553;BME280;52465;51.560;14.368;2023-01-30T11:42:50;99356.59;;;5.50;65.74
65553;BME280;52465;51.560;14.368;2023-01-30T11:45:19;99351.81;;;5.46;66.03
65553;BME280;52465;51.560;14.368;2023-01-30T11:47:55;99336.25;;;5.46;66.17
65553;BME280;52465;51.560;14.368;2023-01-30T11:50:27;99314.28;;;5.40;65.91
65553;BME280;52465;51.560;14.368;2023-01-30T11:53:01;99329.88;;;5.58;65.95
65553;BME280;52465;51.560;14.368;2023-01-30T11:56:04;99327.56;;;5.55;65.99
65553;BME280;52465;51.560;14.368;2023-01-30T11:58:34;99310.13;;;5.47;65.68
65553;BME280;52465;51.560;14.368;2023-01-30T12:01:01;99299.47;;;5.50;65.58
65553;BME280;52465;51.560;14.368;2023-01-30T12:03:28;99306.94;;;5.53;65.99
65553;BME280;52465;51.560;14.368;2023-01-30T12:05:56;99323.88;;;5.57;65.56
65553;BME280;52465;51.560;14.368;2023-01-30T12:11:00;99317.06;;;5.56;65.98
65553;BME280;52465;51.560;14.368;2023-01-30T12:13:40;99327.44;;;5.56;65.72
65553;BME280;52465;51.560;14.368;2023-01-30T12:19:04;99322.91;;;5.58;65.99
65553;BME280;52465;51.560;14.368;2023-01-30T12:21:43;99326.97;;;5.61;66.18
65553;BME280;52465;51.560;14.368;2023-01-30T12:24:19;99298.94;;;5.47;65.86
65553;BME280;52465;51.560;14.368;2023-01-30T12:26:56;99314.00;;;5.61;66.02
65553;BME280;52465;51.560;14.368;2023-01-30T12:29:33;99301.31;;;5.58;65.92
65553;BME280;52465;51.560;14.368;2023-01-30T12:32:10;99287.91;;;5.63;65.64
65553;BME280;52465;51.560;14.368;2023-01-30T12:34:37;99287.53;;;5.57;66.06
65553;BME280;52465;51.560;14.368;2023-01-30T12:42:57;99292.13;;;5.64;65.69
65553;BME280;52465;51.560;14.368;2023-01-30T12:45:28;99300.72;;;5.64;65.95
65553;BME280;52465;51.560;14.368;2023-01-30T12:48:26;99284.34;;;5.64;66.02
65553;BME280;52465;51.560;14.368;2023-01-30T12:51:08;99293.75;;;5.65;66.00
65553;BME280;52465;51.560;14.368;2023-01-30T12:53:59;99286.13;;;5.63;66.17
65553;BME280;52465;51.560;14.368;2023-01-30T12:56:46;99283.34;;;5.65;65.73
65553;BME280;52465;51.560;14.368;2023-01-30T13:07:59;99269.84;;;5.61;66.22
65553;BME280;52465;51.560;14.368;2023-01-30T13:10:35;99274.31;;;5.69;66.02
65553;BME280;52465;51.560;14.368;2023-01-30T13:13:21;99244.97;;;5.50;65.67
65553;BME280;52465;51.560;14.368;2023-01-30T13:16:02;99270.09;;;5.68;66.21
65553;BME280;52465;51.560;14.368;2023-01-30T13:18:58;99277.88;;;5.68;66.07
65553;BME280;52465;51.560;14.368;2023-01-30T13:21:35;99271.72;;;5.69;66.15
65553;BME280;52465;51.560;14.368;2023-01-30T13:24:16;99262.22;;;5.60;65.64
65553;BME280;52465;51.560;14.368;2023-01-30T13:26:46;99283.72;;;5.70;66.22
65553;BME280;52465;51.560;14.368;2023-01-30T13:29:27;99273.78;;;5.65;65.89
65553;BME280;52465;51.560;14.368;2023-01-30T13:31:55;99255.69;;;5.55;65.82
65553;BME280;52465;51.560;14.368;2023-01-30T13:34:30;99256.88;;;5.61;65.83
65553;BME280;52465;51.560;14.368;2023-01-30T13:37:02;99259.47;;;5.61;66.36
65553;BME280;52465;51.560;14.368;2023-01-30T13:39:36;99269.13;;;5.69;66.04
65553;BME280;52465;51.560;14.368;2023-01-30T13:42:07;99267.34;;;5.69;66.20
65553;BME280;52465;51.560;14.368;2023-01-30T13:44:41;99273.50;;;5.68;66.11
65553;BME280;52465;51.560;14.368;2023-01-30T13:47:23;99265.72;;;5.68;66.00
65553;BME280;52465;51.560;14.368;2023-01-30T13:52:58;99262.16;;;5.69;66.22
65553;BME280;52465;51.560;14.368;2023-01-30T14:00:53;99255.16;;;5.70;66.05
65553;BME280;52465;51.560;14.368;2023-01-30T14:03:31;99249.31;;;5.68;66.41
65553;BME280;52465;51.560;14.368;2023-01-30T14:05:59;99232.47;;;5.54;66.31
65553;BME280;52465;51.560;14.368;2023-01-30T14:08:29;99230.63;;;5.64;66.04
65553;BME280;52465;51.560;14.368;2023-01-30T14:10:57;99200.09;;;5.40;66.23
65553;BME280;52465;51.560;14.368;2023-01-30T14:13:30;99242.19;;;5.70;66.51
65553;BME280;52465;51.560;14.368;2023-01-30T14:15:59;99247.00;;;5.65;66.01
65553;BME280;52465;51.560;14.368;2023-01-30T14:18:30;99241.16;;;5.63;66.50
65553;BME280;52465;51.560;14.368;2023-01-30T14:21:12;99227.66;;;5.59;66.33
65553;BME280;52465;51.560;14.368;2023-01-30T14:23:40;99239.22;;;5.65;66.25
65553;BME280;52465;51.560;14.368;2023-01-30T14:26:07;99220.22;;;5.64;66.10
65553;BME280;52465;51.560;14.368;2023-01-30T14:28:44;99213.56;;;5.62;66.50
65553;BME280;52465;51.560;14.368;2023-01-30T14:31:10;99230.19;;;5.69;66.02
65553;BME280;52465;51.560;14.368;2023-01-30T14:33:50;99224.28;;;5.67;66.43
65553;BME280;52465;51.560;14.368;2023-01-30T14:42:18;99259.09;;;5.74;66.18
65553;BME280;52465;51.560;14.368;2023-01-30T14:47:19;99205.56;;;5.37;66.09